Airfield :
LOGIN :

Register | Disclaimer

   EN    FR    IT 

 










Legend :    VFR   Marginal VFR   IFR   Intensive IFR   Very Intensive IFR
Visi :
Ceiling :
>= 8 km
>= 3000ft
5 to 8 km
1000 to 3000 ft
1500m to 5 km
500 to 1000 ft
800 to 1500m
200 to 500 ft
< 800m
< 200 ft
Symbols :   Thunderstorms  Fog  Heavy snow  Heavy precipitations  Wind > 20 kt
SIGMETs :     Misc.  Thunderstorms  Icing  Turbulence  Mountain Waves  Volcanic Ashes







- Airport Elevation : 392 ft
- IATA code : CDG
- Download approach charts


LFPG - Paris-Aeroport Charles De Gaulle

CURRENT METAR :
  • 170530Z 19009KT CAVOK 18/14 Q1017 NOSIG

EXPIRED METARs :
  • 170500Z 19010KT 180V260 CAVOK 18/13 Q1017 NOSIG
  • 170430Z 19009KT CAVOK 18/13 Q1017 NOSIG
  • 170400Z 19008KT 170V270 CAVOK 18/13 Q1017 NOSIG
  • 170330Z 17005KT CAVOK 18/14 Q1017 NOSIG
  • 170300Z 18006KT CAVOK 18/14 Q1017 NOSIG

TAF TAF LFPG
Valid from the 17 at 06:00 until the 18 at 12:00 UTC


170500Z 1706/1812 20010KT CAVOK
BECMG 1707/1709 BKN020
TEMPO 1711/1713 22012G25KT
PROB40
TEMPO 1716/1719 2500 RA SCT015 SCT025CB
PROB40
TEMPO 1804/1806 3000 RA BKN015 SCT020TCU TX25/1716Z TN18/1706Z
ATIS : +33 1 48 62 10 92
No reported NOTAMs for that airfield.



MET'MAP, your aeronautical weather chart ! - Copyright ORBIFLY December 2007 - Disclaimer

ORBIFLY MET'MAP TEAM :

Programming & Development : Alexandra Zaïnal
Concept & Development : Baudouin d'Aumeries
Co-Development & Prog : Marc-Olivier Méhu
Technical & hardware support : Manuel Goepfert

Contact : metmap@orbifly.com




SOURCES & CREDITS :

   NOAA